Urb Monte Sol, Puerto Rico
Current Conditions -  °F | °C
As of 10:56 AM on Thursday 18 Dec 2014 (Local Time) from TJSJ Reporting Station
Broken Clouds Broken Clouds  
Wind Chill: 82°   Ceiling: 8000
Heat Index: 85°   Visibility: 10mi
Dew Point: 68°   Wind: 12mph
Humidity: 62%   Direction: 40°NE
Pressure: 30.06"   Gusts: 21mph
Location:  18.3893°N, 66.2481°W
Report Text: TJSJ 181456Z 04010G18KT 10SM SCT032 BKN080 28/20 A3006 RMK AO2 SLP178 T02780200 50009
Loading
Personal Weather Stations






























Interactive Weather Map New forecast layout! Learn more

10-Day Weather Forecast

Advertisements
Track Severe Weather on mobile